createdAt,value
2019-02-28T00:00:17.011Z,70.02
2019-02-28T00:02:48.912Z,70.02
2019-02-28T00:05:19.267Z,69.82
2019-02-28T00:07:50.506Z,69.77
2019-02-28T00:10:20.915Z,69.85
2019-02-28T00:12:51.181Z,69.78
2019-02-28T00:15:21.527Z,69.92
2019-02-28T00:17:52.038Z,70.11
2019-02-28T00:20:22.410Z,70.12
2019-02-28T00:22:52.753Z,70.13
2019-02-28T00:25:23.100Z,70.17
2019-02-28T00:28:11.636Z,70.37
2019-02-28T00:30:41.995Z,70.18
2019-02-28T00:33:12.340Z,70.32
2019-02-28T00:35:44.714Z,70.37
2019-02-28T00:38:14.771Z,70.47
2019-02-28T00:40:45.099Z,70.60
2019-02-28T00:43:16.447Z,70.70
2019-02-28T00:45:46.718Z,70.77
2019-02-28T00:48:18.307Z,70.62
2019-02-28T00:50:48.950Z,70.49
2019-02-28T00:53:19.286Z,70.56
2019-02-28T00:55:49.557Z,70.71
2019-02-28T00:58:19.880Z,70.88
2019-02-28T01:00:50.251Z,70.81
2019-02-28T01:03:20.591Z,70.73
2019-02-28T01:05:50.866Z,70.75
2019-02-28T01:08:22.087Z,70.69
2019-02-28T01:10:53.106Z,70.31
2019-02-28T01:13:27.241Z,70.47
2019-02-28T01:15:55.474Z,70.49
2019-02-28T01:18:25.733Z,70.59
2019-02-28T01:20:56.015Z,70.56
2019-02-28T01:23:29.370Z,70.63
2019-02-28T01:25:58.249Z,70.60
2019-02-28T01:28:28.514Z,70.79
2019-02-28T01:30:58.785Z,70.82
2019-02-28T01:33:29.074Z,70.95
2019-02-28T01:35:59.415Z,71.10
2019-02-28T01:38:29.697Z,71.23
2019-02-28T01:40:59.947Z,71.16
2019-02-28T01:43:30.215Z,70.83
2019-02-28T01:46:00.497Z,70.54
2019-02-28T01:48:30.836Z,70.74
2019-02-28T01:51:01.722Z,70.65
2019-02-28T01:53:32.056Z,70.46
2019-02-28T01:56:03.265Z,70.74
2019-02-28T01:58:33.500Z,70.75
2019-02-28T02:01:03.768Z,70.43
2019-02-28T02:03:34.045Z,70.40
2019-02-28T02:06:04.306Z,69.85
2019-02-28T02:08:37.678Z,69.87
2019-02-28T02:11:06.608Z,69.77
2019-02-28T02:13:37.489Z,70.03
2019-02-28T02:16:07.813Z,69.95
2019-02-28T02:18:40.236Z,69.63
2019-02-28T02:21:10.053Z,69.68
2019-02-28T02:23:40.329Z,69.51
2019-02-28T02:26:11.258Z,69.69
2019-02-28T02:28:42.152Z,70.08
2019-02-28T02:31:12.444Z,70.48
2019-02-28T02:33:50.930Z,70.52
2019-02-28T02:36:17.581Z,70.58
2019-02-28T02:38:48.051Z,70.48
2019-02-28T02:41:18.329Z,70.55
2019-02-28T02:43:48.617Z,70.59
2019-02-28T02:46:20.393Z,70.64
2019-02-28T02:48:50.955Z,70.78
2019-02-28T02:51:21.279Z,70.73
2019-02-28T02:53:51.553Z,70.47
2019-02-28T02:56:21.919Z,70.14
2019-02-28T02:58:52.178Z,70.07
2019-02-28T03:01:23.415Z,69.76
2019-02-28T03:03:54.709Z,69.83
2019-02-28T03:06:25.055Z,69.85
2019-02-28T03:08:55.324Z,69.97
2019-02-28T03:11:26.042Z,70.04
2019-02-28T03:13:56.621Z,70.13
2019-02-28T03:16:26.898Z,70.26
2019-02-28T03:18:58.369Z,70.21
2019-02-28T03:21:28.823Z,70.25
2019-02-28T03:23:59.084Z,70.28
2019-02-28T03:26:29.482Z,70.28
2019-02-28T03:28:59.812Z,70.14
2019-02-28T03:31:30.178Z,70.16
2019-02-28T03:34:10.030Z,70.18
2019-02-28T03:36:32.594Z,70.11
2019-02-28T03:39:04.095Z,69.73
2019-02-28T03:41:34.446Z,69.76
2019-02-28T03:44:04.714Z,70.08
2019-02-28T03:46:35.043Z,70.23
2019-02-28T03:49:11.182Z,70.42
2019-02-28T03:51:37.257Z,70.62
2019-02-28T03:54:07.539Z,70.71
2019-02-28T03:56:37.846Z,70.72
2019-02-28T03:59:08.097Z,70.69
2019-02-28T04:01:44.625Z,70.60
2019-02-28T04:04:12.181Z,70.59
2019-02-28T04:06:42.310Z,70.42
2019-02-28T04:09:12.605Z,70.41
2019-02-28T04:11:42.889Z,70.42
2019-02-28T04:14:14.141Z,70.55
2019-02-28T04:16:44.385Z,70.31
2019-02-28T04:19:21.243Z,70.26
2019-02-28T04:21:47.881Z,70.61
2019-02-28T04:24:18.359Z,70.41
2019-02-28T04:26:48.665Z,70.45
2019-02-28T04:29:18.947Z,70.24
2019-02-28T04:31:51.355Z,70.11
2019-02-28T04:34:21.201Z,70.37
2019-02-28T04:36:51.493Z,70.46
2019-02-28T04:39:22.853Z,70.19
2019-02-28T04:41:53.885Z,70.25
2019-02-28T04:44:24.152Z,70.27
2019-02-28T04:46:54.423Z,70.37
2019-02-28T04:49:24.696Z,70.53
2019-02-28T04:51:54.973Z,69.91
2019-02-28T04:54:27.917Z,69.87
2019-02-28T04:56:57.587Z,69.65
2019-02-28T04:59:28.103Z,69.48
2019-02-28T05:01:58.366Z,69.24
2019-02-28T05:04:28.709Z,69.59
2019-02-28T05:06:58.995Z,69.32
2019-02-28T05:09:29.252Z,69.15
2019-02-28T05:12:02.417Z,69.25
2019-02-28T05:14:31.522Z,69.57
2019-02-28T05:17:01.836Z,69.63
2019-02-28T05:19:32.389Z,69.68
2019-02-28T05:22:04.019Z,69.81
2019-02-28T05:24:34.286Z,69.88
2019-02-28T05:27:04.555Z,69.75
2019-02-28T05:29:34.824Z,69.59
2019-02-28T05:32:05.083Z,69.41
2019-02-28T05:34:35.436Z,69.04
2019-02-28T05:37:05.704Z,68.86
2019-02-28T05:39:35.978Z,68.49
2019-02-28T05:42:06.235Z,67.87
2019-02-28T05:44:37.385Z,67.71
2019-02-28T05:47:08.475Z,67.42
2019-02-28T05:49:40.670Z,67.28
2019-02-28T05:52:10.756Z,67.34
2019-02-28T05:54:40.995Z,67.21
2019-02-28T05:57:11.271Z,67.01
2019-02-28T05:59:41.541Z,67.36
2019-02-28T06:02:11.808Z,67.28
2019-02-28T06:04:42.085Z,67.29
2019-02-28T06:07:12.362Z,67.53
2019-02-28T06:09:45.604Z,67.82
2019-02-28T06:12:14.604Z,67.89
2019-02-28T06:14:44.893Z,67.97
2019-02-28T06:17:17.344Z,67.80
2019-02-28T06:19:47.194Z,67.47
2019-02-28T06:22:17.463Z,66.98
2019-02-28T06:24:47.764Z,66.95
2019-02-28T06:27:18.020Z,66.86
2019-02-28T06:29:48.432Z,66.69
2019-02-28T06:32:23.263Z,66.61
2019-02-28T06:34:50.682Z,66.14
2019-02-28T06:37:20.958Z,65.83
2019-02-28T06:39:51.235Z,65.77
2019-02-28T06:42:21.501Z,65.64
2019-02-28T06:44:51.841Z,64.76
2019-02-28T06:47:22.092Z,65.48
2019-02-28T06:49:52.371Z,64.61
2019-02-28T06:52:25.261Z,64.66
2019-02-28T06:54:54.634Z,64.87
2019-02-28T06:57:26.768Z,64.17
2019-02-28T06:59:56.941Z,64.09
2019-02-28T07:02:28.542Z,64.20
2019-02-28T07:05:02.240Z,63.74
2019-02-28T07:07:32.517Z,64.01
2019-02-28T07:10:03.091Z,63.69
2019-02-28T07:12:33.422Z,63.05
2019-02-28T07:15:04.240Z,62.98
2019-02-28T07:17:34.529Z,58.29
2019-02-28T07:20:09.628Z,54.77
2019-02-28T07:22:40.142Z,52.87
2019-02-28T07:25:12.662Z,50.53
2019-02-28T07:27:44.285Z,49.98
2019-02-28T07:30:19.364Z,49.19
2019-02-28T07:32:49.831Z,48.25
2019-02-28T07:35:20.113Z,48.44
2019-02-28T07:37:53.627Z,47.57
2019-02-28T07:40:22.541Z,46.98
2019-02-28T07:42:52.817Z,46.42
2019-02-28T07:45:23.119Z,44.97
2019-02-28T07:47:53.462Z,45.92
2019-02-28T07:50:23.807Z,44.90
2019-02-28T07:52:54.085Z,45.45
2019-02-28T07:55:27.181Z,43.87
2019-02-28T07:57:56.752Z,43.95
2019-02-28T08:00:27.212Z,44.02
2019-02-28T08:02:57.548Z,43.26
2019-02-28T08:05:30.941Z,43.45
2019-02-28T08:07:59.920Z,43.06
2019-02-28T08:10:32.042Z,42.77
2019-02-28T08:13:03.086Z,42.92
2019-02-28T08:15:34.280Z,43.33
2019-02-28T08:18:05.867Z,43.02
2019-02-28T08:20:36.426Z,43.01
2019-02-28T08:23:06.714Z,42.05
2019-02-28T08:25:39.624Z,43.03
2019-02-28T08:28:09.047Z,42.08
2019-02-28T08:30:39.443Z,42.53
2019-02-28T08:33:09.717Z,42.07
2019-02-28T08:35:40.011Z,42.29
2019-02-28T08:38:10.371Z,42.03
2019-02-28T08:40:40.664Z,41.53
2019-02-28T08:43:13.551Z,40.83
2019-02-28T08:45:42.996Z,40.35
2019-02-28T08:48:13.289Z,40.60
2019-02-28T08:50:43.657Z,40.74
2019-02-28T08:53:15.560Z,39.64
2019-02-28T08:55:46.024Z,40.65
2019-02-28T08:58:16.321Z,40.26
2019-02-28T09:00:46.677Z,41.30
2019-02-28T09:03:16.993Z,40.37
2019-02-28T09:05:47.287Z,40.40
2019-02-28T09:08:18.622Z,39.55
2019-02-28T09:10:49.276Z,40.09
2019-02-28T09:13:19.556Z,40.05
2019-02-28T09:15:50.676Z,39.58
2019-02-28T09:18:20.979Z,39.85
2019-02-28T09:20:51.275Z,39.85
2019-02-28T09:23:23.486Z,39.82
2019-02-28T09:25:56.592Z,38.07
2019-02-28T09:28:27.032Z,39.94
2019-02-28T09:31:01.316Z,39.29
2019-02-28T09:33:30.402Z,37.40
2019-02-28T09:36:02.388Z,37.85
2019-02-28T09:38:34.018Z,37.68
2019-02-28T09:41:05.410Z,38.15
2019-02-28T09:43:35.835Z,38.75
2019-02-28T09:46:09.036Z,38.66
2019-02-28T09:48:39.139Z,38.75
2019-02-28T09:51:09.411Z,38.17
2019-02-28T09:53:39.758Z,38.83
2019-02-28T09:56:10.200Z,38.72
2019-02-28T09:58:40.440Z,37.45
2019-02-28T10:01:10.727Z,37.08
2019-02-28T10:03:43.643Z,36.53
2019-02-28T10:06:16.386Z,38.37
2019-02-28T10:08:45.956Z,37.86
2019-02-28T10:11:16.236Z,37.45
2019-02-28T10:13:49.531Z,37.65
2019-02-28T10:16:18.531Z,37.66
2019-02-28T10:18:49.880Z,37.95
2019-02-28T10:21:20.152Z,36.84
2019-02-28T10:23:53.404Z,36.11
2019-02-28T10:26:23.202Z,37.37
2019-02-28T10:28:53.544Z,36.78
2019-02-28T10:31:34.776Z,40.30
2019-02-28T10:33:55.829Z,38.90
2019-02-28T10:36:26.114Z,38.81
2019-02-28T10:38:56.475Z,38.26
2019-02-28T10:41:27.946Z,39.40
2019-02-28T10:43:59.900Z,38.33
2019-02-28T10:46:30.320Z,37.38
2019-02-28T10:49:00.905Z,37.59
2019-02-28T10:51:31.250Z,37.47
2019-02-28T10:54:01.562Z,36.81
2019-02-28T10:56:32.691Z,36.25
2019-02-28T10:59:03.188Z,36.65
2019-02-28T11:01:33.553Z,36.29
2019-02-28T11:04:04.538Z,36.58
2019-02-28T11:06:38.467Z,35.73
2019-02-28T11:09:13.832Z,37.18
2019-02-28T11:11:45.610Z,38.16
2019-02-28T11:14:18.189Z,37.38
2019-02-28T11:16:48.541Z,36.57
2019-02-28T11:19:19.578Z,37.21
2019-02-28T11:21:50.027Z,37.34
2019-02-28T11:24:20.575Z,39.08
2019-02-28T11:26:52.382Z,37.88
2019-02-28T11:29:22.738Z,40.00
2019-02-28T11:31:54.181Z,40.25
2019-02-28T11:34:25.057Z,40.35
2019-02-28T11:36:55.374Z,38.95
2019-02-28T11:39:27.588Z,38.95
2019-02-28T11:41:59.276Z,39.22
2019-02-28T11:44:29.868Z,40.53
2019-02-28T11:47:00.141Z,40.83
2019-02-28T11:49:30.432Z,39.85
2019-02-28T11:52:00.820Z,42.15
2019-02-28T11:54:31.210Z,41.92
2019-02-28T11:57:03.014Z,41.43
2019-02-28T11:59:33.636Z,42.21
2019-02-28T12:02:04.055Z,42.40
2019-02-28T12:04:37.397Z,42.47
2019-02-28T12:07:06.457Z,42.87
2019-02-28T12:09:36.829Z,43.25
2019-02-28T12:12:07.317Z,44.22
2019-02-28T12:14:39.093Z,44.37
2019-02-28T12:17:09.364Z,44.50
2019-02-28T12:19:39.648Z,45.63
2019-02-28T12:22:12.104Z,45.25
2019-02-28T12:24:42.024Z,44.81
2019-02-28T12:27:12.321Z,45.12
2019-02-28T12:29:45.591Z,44.66
2019-02-28T12:32:15.932Z,45.61
2019-02-28T12:34:46.225Z,45.53
2019-02-28T12:38:05.201Z,45.53
2019-02-28T12:40:37.722Z,44.79
2019-02-28T12:43:10.458Z,44.79
2019-02-28T12:45:46.452Z,44.98
2019-02-28T12:48:15.381Z,44.63
2019-02-28T12:50:45.654Z,44.55
2019-02-28T12:53:16.442Z,45.29
2019-02-28T12:59:45.390Z,44.43
2019-02-28T13:02:13.842Z,44.68
2019-02-28T13:04:44.273Z,44.53
2019-02-28T13:07:14.627Z,45.02
2019-02-28T13:09:44.905Z,45.85
2019-02-28T13:12:15.550Z,45.66
2019-02-28T13:14:46.473Z,45.92
2019-02-28T13:17:18.187Z,44.81
2019-02-28T13:19:48.922Z,45.63
2019-02-28T13:22:23.317Z,44.79
2019-02-28T13:24:53.430Z,45.21
2019-02-28T13:27:23.723Z,44.95
2019-02-28T13:29:54.002Z,45.08
2019-02-28T13:32:24.347Z,45.26
2019-02-28T13:34:54.718Z,46.03
2019-02-28T13:37:25.075Z,45.30
2019-02-28T13:39:55.371Z,46.54
2019-02-28T13:42:25.713Z,45.69
2019-02-28T13:44:56.000Z,46.35
2019-02-28T13:47:26.278Z,46.82
2019-02-28T13:49:56.721Z,46.51
2019-02-28T13:52:26.979Z,46.93
2019-02-28T13:54:57.289Z,47.37
2019-02-28T13:57:27.648Z,46.41
2019-02-28T13:59:57.936Z,46.74
2019-02-28T14:02:33.586Z,47.05
2019-02-28T14:05:04.211Z,47.38
2019-02-28T14:07:34.855Z,47.51
2019-02-28T14:10:08.552Z,47.05
2019-02-28T14:12:39.996Z,46.79
2019-02-28T14:15:15.431Z,47.61
2019-02-28T14:17:47.156Z,47.15
2019-02-28T14:20:17.712Z,48.09
2019-02-28T14:22:48.188Z,47.86
2019-02-28T14:25:18.694Z,48.75
2019-02-28T14:27:49.051Z,48.87
2019-02-28T14:30:22.831Z,49.04
2019-02-28T14:32:53.435Z,48.84
2019-02-28T14:35:25.682Z,48.99
2019-02-28T14:37:56.912Z,49.64
2019-02-28T14:40:27.266Z,49.52
2019-02-28T14:42:57.546Z,49.87
2019-02-28T14:45:42.736Z,50.39
2019-02-28T14:48:14.045Z,50.48
2019-02-28T14:50:45.407Z,50.53
2019-02-28T14:53:17.407Z,50.97
2019-02-28T14:55:48.079Z,51.69
2019-02-28T14:58:21.253Z,51.79
2019-02-28T15:00:50.428Z,52.19
2019-02-28T15:03:20.709Z,52.26
2019-02-28T15:05:52.378Z,52.24
2019-02-28T15:08:23.056Z,52.64
2019-02-28T15:10:53.413Z,52.82
2019-02-28T15:13:23.738Z,52.84
2019-02-28T15:15:54.369Z,53.31
2019-02-28T15:18:24.762Z,53.20
2019-02-28T15:20:56.743Z,53.37
2019-02-28T15:23:27.093Z,53.76
2019-02-28T15:25:58.443Z,54.26
2019-02-28T15:28:28.728Z,54.52
2019-02-28T15:30:59.033Z,55.02
2019-02-28T15:33:30.584Z,55.26
2019-02-28T15:36:01.494Z,55.63
2019-02-28T15:38:31.923Z,55.74
2019-02-28T15:49:53.972Z,56.78
2019-02-28T15:52:28.988Z,57.25
2019-02-28T15:55:02.961Z,57.64
2019-02-28T15:58:32.904Z,58.16
2019-02-28T16:01:32.353Z,58.41
2019-02-28T16:12:46.545Z,59.93
2019-02-28T16:15:54.156Z,60.74
2019-02-28T16:18:33.346Z,61.64
2019-02-28T16:21:07.190Z,62.15
2019-02-28T16:23:41.865Z,62.39
2019-02-28T16:26:57.978Z,63.33
2019-02-28T16:29:25.755Z,63.43
2019-02-28T16:31:58.513Z,64.49
2019-02-28T16:34:29.204Z,64.88
2019-02-28T16:37:07.438Z,65.16
2019-02-28T16:42:40.249Z,65.93
2019-02-28T16:45:15.804Z,66.42
2019-02-28T16:47:49.246Z,66.76
2019-02-28T16:50:28.949Z,67.38
2019-02-28T16:53:01.100Z,67.63
2019-02-28T16:55:32.740Z,68.15
2019-02-28T16:58:03.137Z,68.82
2019-02-28T17:00:39.498Z,69.14
2019-02-28T17:03:11.875Z,69.58
2019-02-28T17:05:45.904Z,70.28
2019-02-28T17:08:19.531Z,70.74
2019-02-28T17:10:52.734Z,71.14
2019-02-28T17:13:24.860Z,71.31
2019-02-28T17:16:02.361Z,71.58
2019-02-28T17:18:38.838Z,72.02
2019-02-28T17:21:16.898Z,72.23
2019-02-28T17:23:45.192Z,72.57
2019-02-28T17:26:18.770Z,72.55
2019-02-28T17:28:52.331Z,72.68
2019-02-28T17:31:29.718Z,73.23
2019-02-28T17:48:52.557Z,74.47
2019-02-28T17:51:36.289Z,73.86
2019-02-28T17:54:23.678Z,74.30
2019-02-28T17:57:03.111Z,74.40
2019-02-28T18:44:08.704Z,77.21
2019-02-28T18:50:54.063Z,77.83
2019-02-28T18:53:25.841Z,77.86
2019-02-28T18:59:29.445Z,77.81
2019-02-28T19:05:48.365Z,77.99
2019-02-28T19:08:21.248Z,78.41
2019-02-28T19:10:55.430Z,78.35
2019-02-28T19:13:26.224Z,79.06
2019-02-28T19:16:00.379Z,78.71
2019-02-28T19:18:44.029Z,78.69
2019-02-28T19:32:19.532Z,79.15
2019-02-28T19:34:53.030Z,79.12
2019-02-28T19:37:56.596Z,78.78
2019-02-28T19:40:31.897Z,78.34
2019-02-28T19:47:47.676Z,79.26
2019-02-28T19:55:07.583Z,79.54
2019-02-28T19:58:50.027Z,79.78
2019-02-28T20:01:48.335Z,78.89
2019-02-28T20:04:27.686Z,79.32
2019-02-28T20:08:05.429Z,79.14
2019-02-28T20:10:35.874Z,79.75
2019-02-28T20:13:06.333Z,80.50
2019-02-28T20:15:40.157Z,81.11
2019-02-28T20:18:12.714Z,81.65
2019-02-28T20:25:11.030Z,81.20
2019-02-28T20:27:43.482Z,81.53
2019-02-28T20:30:18.964Z,81.81
2019-02-28T20:33:08.960Z,82.46
2019-02-28T20:35:42.465Z,82.33
2019-02-28T20:45:38.524Z,82.34
2019-02-28T20:48:11.439Z,81.67
2019-02-28T20:50:46.257Z,81.51
2019-02-28T20:53:17.133Z,81.38
2019-02-28T21:04:13.181Z,80.79
2019-02-28T21:10:49.886Z,80.96
2019-02-28T21:14:01.696Z,80.40
2019-02-28T21:20:53.611Z,80.12
2019-02-28T21:23:25.483Z,81.95
2019-02-28T21:25:57.312Z,82.19
2019-02-28T21:28:29.793Z,82.69
2019-02-28T21:31:00.126Z,82.20
2019-02-28T21:33:30.428Z,81.67
2019-02-28T21:37:00.630Z,82.27
2019-02-28T21:39:30.910Z,82.72
2019-02-28T21:42:01.441Z,82.63
2019-02-28T21:44:31.915Z,82.07
2019-02-28T21:47:02.255Z,82.24
2019-02-28T21:49:32.529Z,82.40
2019-02-28T21:52:02.815Z,82.40
2019-02-28T21:54:33.166Z,81.76
2019-02-28T21:57:52.132Z,81.51
2019-02-28T22:00:30.703Z,82.25
2019-02-28T22:03:00.962Z,82.55
2019-02-28T22:05:31.234Z,82.78
2019-02-28T22:08:01.558Z,83.07
2019-02-28T22:10:31.970Z,83.52
2019-02-28T22:13:02.311Z,83.20
2019-02-28T22:15:32.715Z,83.38
2019-02-28T22:18:03.242Z,82.72
2019-02-28T22:20:33.531Z,83.16
2019-02-28T22:23:03.870Z,83.14
2019-02-28T22:25:34.139Z,83.12
2019-02-28T22:28:04.401Z,83.31
2019-02-28T22:30:42.337Z,82.41
2019-02-28T22:33:20.053Z,82.18
2019-02-28T22:35:51.989Z,82.19
2019-02-28T22:38:22.331Z,82.53
2019-02-28T22:40:52.691Z,81.78
2019-02-28T22:43:22.955Z,82.38
2019-02-28T22:45:53.299Z,81.88
2019-02-28T22:48:24.710Z,81.77
2019-02-28T22:50:55.145Z,81.40
2019-02-28T22:53:27.078Z,81.38
2019-02-28T22:55:57.376Z,81.30
2019-02-28T22:58:27.696Z,81.23
2019-02-28T23:01:14.718Z,81.59
2019-02-28T23:03:49.496Z,82.20
2019-02-28T23:06:20.207Z,81.96
2019-02-28T23:08:50.476Z,81.37
2019-02-28T23:11:22.405Z,80.96
2019-02-28T23:13:54.341Z,81.19
2019-02-28T23:16:24.658Z,80.85
2019-02-28T23:18:54.929Z,81.44
2019-02-28T23:21:25.201Z,81.33
2019-02-28T23:23:55.552Z,81.31
2019-02-28T23:26:26.986Z,81.21
2019-02-28T23:29:00.617Z,81.17
2019-02-28T23:31:58.765Z,81.08
2019-02-28T23:34:34.766Z,80.48
2019-02-28T23:37:05.136Z,80.23
2019-02-28T23:39:35.470Z,80.14
2019-02-28T23:42:05.871Z,80.20
2019-02-28T23:44:39.222Z,80.00
2019-02-28T23:47:09.516Z,80.19
2019-02-28T23:49:39.797Z,80.26
2019-02-28T23:52:10.153Z,79.65
2019-02-28T23:54:42.074Z,79.15
2019-02-28T23:57:12.442Z,78.65
2019-02-28T23:59:42.787Z,78.17
